Terminal Aerodrome Forecast
Issued by NWS Wilmington, OH

Current Version | Previous Version | Graphics & Text | Print | Product List | Glossary On
Versions: 1 2 3 4 5 6 7 8 9 10 11 12 13 14 15 16 17 18 19
000
FTUS41 KILN 190500
TAFCMH
TAF
KCMH 190539Z 1906/2006 VRB03KT P6SM SCT040
      TEMPO 1909/1912 5SM BR
     FM191400 21005KT P6SM SCT040
     FM191800 21008KT P6SM BKN040
     FM200300 21005KT P6SM VCTS BKN040CB=

USA.gov is the U.S. government's official web portal to all federal, state and local government web resources and services.